sensor_id;sensor_type;location;lat;lon;timestamp;P1;durP1;ratioP1;P2;durP2;ratioP2
24557;SDS011;12726;49.148;8.582;2023-02-01T00:01:47;7.57;;;4.10;;
24557;SDS011;12726;49.148;8.582;2023-02-01T00:04:33;8.50;;;4.70;;
24557;SDS011;12726;49.148;8.582;2023-02-01T00:07:18;8.98;;;4.35;;
24557;SDS011;12726;49.148;8.582;2023-02-01T00:10:06;9.88;;;4.78;;
24557;SDS011;12726;49.148;8.582;2023-02-01T00:12:52;9.52;;;4.55;;
24557;SDS011;12726;49.148;8.582;2023-02-01T00:15:37;8.85;;;4.68;;
24557;SDS011;12726;49.148;8.582;2023-02-01T00:18:23;9.45;;;4.93;;
24557;SDS011;12726;49.148;8.582;2023-02-01T00:21:09;7.90;;;4.50;;
24557;SDS011;12726;49.148;8.582;2023-02-01T00:23:55;6.97;;;4.57;;
24557;SDS011;12726;49.148;8.582;2023-02-01T00:26:42;8.57;;;4.47;;
24557;SDS011;12726;49.148;8.582;2023-02-01T00:29:29;8.35;;;4.60;;
24557;SDS011;12726;49.148;8.582;2023-02-01T00:32:14;7.45;;;4.20;;
24557;SDS011;12726;49.148;8.582;2023-02-01T00:35:00;6.80;;;4.30;;
24557;SDS011;12726;49.148;8.582;2023-02-01T00:37:45;7.38;;;4.82;;
24557;SDS011;12726;49.148;8.582;2023-02-01T00:40:31;6.97;;;4.25;;
24557;SDS011;12726;49.148;8.582;2023-02-01T00:43:17;8.25;;;4.13;;
24557;SDS011;12726;49.148;8.582;2023-02-01T00:46:03;5.13;;;3.55;;
24557;SDS011;12726;49.148;8.582;2023-02-01T00:48:49;7.30;;;4.07;;
24557;SDS011;12726;49.148;8.582;2023-02-01T00:51:34;7.80;;;4.20;;
24557;SDS011;12726;49.148;8.582;2023-02-01T00:54:22;8.25;;;4.10;;
24557;SDS011;12726;49.148;8.582;2023-02-01T00:57:07;7.72;;;4.55;;
24557;SDS011;12726;49.148;8.582;2023-02-01T00:59:54;8.75;;;4.35;;
24557;SDS011;12726;49.148;8.582;2023-02-01T01:02:39;9.43;;;3.65;;
24557;SDS011;12726;49.148;8.582;2023-02-01T01:05:26;6.55;;;3.80;;
24557;SDS011;12726;49.148;8.582;2023-02-01T01:08:12;7.05;;;3.70;;
24557;SDS011;12726;49.148;8.582;2023-02-01T01:10:58;7.35;;;4.35;;
24557;SDS011;12726;49.148;8.582;2023-02-01T01:13:45;5.18;;;3.70;;
24557;SDS011;12726;49.148;8.582;2023-02-01T01:16:32;5.38;;;3.42;;
24557;SDS011;12726;49.148;8.582;2023-02-01T01:19:19;4.55;;;3.42;;
24557;SDS011;12726;49.148;8.582;2023-02-01T01:22:04;6.30;;;3.75;;
24557;SDS011;12726;49.148;8.582;2023-02-01T01:24:49;6.90;;;3.65;;
24557;SDS011;12726;49.148;8.582;2023-02-01T01:27:35;6.53;;;4.05;;
24557;SDS011;12726;49.148;8.582;2023-02-01T01:30:20;3.58;;;2.92;;
24557;SDS011;12726;49.148;8.582;2023-02-01T01:33:07;5.55;;;3.22;;
24557;SDS011;12726;49.148;8.582;2023-02-01T01:35:54;6.65;;;3.95;;
24557;SDS011;12726;49.148;8.582;2023-02-01T01:38:39;7.75;;;3.55;;
24557;SDS011;12726;49.148;8.582;2023-02-01T01:41:28;6.35;;;3.35;;
24557;SDS011;12726;49.148;8.582;2023-02-01T01:47:43;4.95;;;3.00;;
24557;SDS011;12726;49.148;8.582;2023-02-01T01:50:35;5.10;;;3.00;;
24557;SDS011;12726;49.148;8.582;2023-02-01T01:53:25;6.83;;;3.87;;
24557;SDS011;12726;49.148;8.582;2023-02-01T01:56:13;5.20;;;3.50;;
24557;SDS011;12726;49.148;8.582;2023-02-01T01:58:59;4.90;;;3.25;;
24557;SDS011;12726;49.148;8.582;2023-02-01T02:01:45;7.38;;;3.38;;
24557;SDS011;12726;49.148;8.582;2023-02-01T02:04:31;5.72;;;3.03;;
24557;SDS011;12726;49.148;8.582;2023-02-01T02:07:21;7.10;;;2.90;;
24557;SDS011;12726;49.148;8.582;2023-02-01T02:10:11;5.82;;;3.88;;
24557;SDS011;12726;49.148;8.582;2023-02-01T02:12:57;4.35;;;2.65;;
24557;SDS011;12726;49.148;8.582;2023-02-01T02:15:43;4.75;;;2.60;;
24557;SDS011;12726;49.148;8.582;2023-02-01T02:18:35;3.03;;;2.05;;
24557;SDS011;12726;49.148;8.582;2023-02-01T02:21:42;6.35;;;2.42;;
24557;SDS011;12726;49.148;8.582;2023-02-01T02:24:47;3.58;;;2.30;;
24557;SDS011;12726;49.148;8.582;2023-02-01T02:27:51;3.53;;;2.38;;
24557;SDS011;12726;49.148;8.582;2023-02-01T02:34:13;4.38;;;2.53;;
24557;SDS011;12726;49.148;8.582;2023-02-01T02:37:09;2.40;;;1.85;;
24557;SDS011;12726;49.148;8.582;2023-02-01T02:40:05;3.17;;;1.80;;
24557;SDS011;12726;49.148;8.582;2023-02-01T02:42:57;3.03;;;1.92;;
24557;SDS011;12726;49.148;8.582;2023-02-01T02:46:04;4.75;;;2.28;;
24557;SDS011;12726;49.148;8.582;2023-02-01T02:49:10;2.83;;;2.17;;
24557;SDS011;12726;49.148;8.582;2023-02-01T02:52:01;3.90;;;2.13;;
24557;SDS011;12726;49.148;8.582;2023-02-01T02:55:18;3.45;;;1.98;;
24557;SDS011;12726;49.148;8.582;2023-02-01T02:58:04;3.67;;;2.00;;
24557;SDS011;12726;49.148;8.582;2023-02-01T03:01:09;4.00;;;2.45;;
24557;SDS011;12726;49.148;8.582;2023-02-01T03:07:11;2.45;;;1.83;;
24557;SDS011;12726;49.148;8.582;2023-02-01T03:09:59;4.72;;;2.33;;
24557;SDS011;12726;49.148;8.582;2023-02-01T03:12:48;3.97;;;1.92;;
24557;SDS011;12726;49.148;8.582;2023-02-01T03:15:41;4.20;;;2.40;;
24557;SDS011;12726;49.148;8.582;2023-02-01T03:18:33;3.05;;;2.10;;
24557;SDS011;12726;49.148;8.582;2023-02-01T03:21:26;4.90;;;2.10;;
24557;SDS011;12726;49.148;8.582;2023-02-01T03:24:18;3.00;;;2.15;;
24557;SDS011;12726;49.148;8.582;2023-02-01T03:27:17;4.15;;;1.90;;
24557;SDS011;12726;49.148;8.582;2023-02-01T03:30:07;3.42;;;2.60;;
24557;SDS011;12726;49.148;8.582;2023-02-01T03:32:56;3.38;;;2.20;;
24557;SDS011;12726;49.148;8.582;2023-02-01T03:35:45;2.75;;;1.90;;
24557;SDS011;12726;49.148;8.582;2023-02-01T03:38:37;3.83;;;2.10;;
24557;SDS011;12726;49.148;8.582;2023-02-01T03:41:31;3.72;;;2.35;;
24557;SDS011;12726;49.148;8.582;2023-02-01T03:44:21;4.47;;;2.00;;
24557;SDS011;12726;49.148;8.582;2023-02-01T03:47:10;3.63;;;2.30;;
24557;SDS011;12726;49.148;8.582;2023-02-01T03:50:00;5.75;;;2.50;;
24557;SDS011;12726;49.148;8.582;2023-02-01T03:52:50;3.38;;;2.03;;
24557;SDS011;12726;49.148;8.582;2023-02-01T03:55:38;4.32;;;2.22;;
24557;SDS011;12726;49.148;8.582;2023-02-01T03:58:25;3.95;;;2.30;;
24557;SDS011;12726;49.148;8.582;2023-02-01T04:01:11;4.28;;;1.85;;
24557;SDS011;12726;49.148;8.582;2023-02-01T04:03:56;5.25;;;2.58;;
24557;SDS011;12726;49.148;8.582;2023-02-01T04:06:42;2.65;;;1.80;;
24557;SDS011;12726;49.148;8.582;2023-02-01T04:09:27;3.80;;;2.10;;
24557;SDS011;12726;49.148;8.582;2023-02-01T04:12:13;3.17;;;2.17;;
24557;SDS011;12726;49.148;8.582;2023-02-01T04:15:00;4.07;;;2.53;;
24557;SDS011;12726;49.148;8.582;2023-02-01T04:17:45;3.90;;;2.20;;
24557;SDS011;12726;49.148;8.582;2023-02-01T04:20:31;4.07;;;2.35;;
24557;SDS011;12726;49.148;8.582;2023-02-01T04:23:16;2.53;;;1.88;;
24557;SDS011;12726;49.148;8.582;2023-02-01T04:26:03;3.05;;;2.00;;
24557;SDS011;12726;49.148;8.582;2023-02-01T04:28:49;2.60;;;2.00;;
24557;SDS011;12726;49.148;8.582;2023-02-01T04:31:37;3.72;;;2.30;;
24557;SDS011;12726;49.148;8.582;2023-02-01T04:34:23;4.90;;;2.75;;
24557;SDS011;12726;49.148;8.582;2023-02-01T04:37:08;4.65;;;2.33;;
24557;SDS011;12726;49.148;8.582;2023-02-01T04:39:54;3.95;;;2.35;;
24557;SDS011;12726;49.148;8.582;2023-02-01T04:42:39;5.20;;;2.50;;
24557;SDS011;12726;49.148;8.582;2023-02-01T04:45:24;5.82;;;2.58;;
24557;SDS011;12726;49.148;8.582;2023-02-01T04:48:11;3.40;;;2.20;;
24557;SDS011;12726;49.148;8.582;2023-02-01T04:50:56;3.20;;;2.65;;
24557;SDS011;12726;49.148;8.582;2023-02-01T04:53:42;4.75;;;2.45;;
24557;SDS011;12726;49.148;8.582;2023-02-01T04:56:27;4.45;;;2.55;;
24557;SDS011;12726;49.148;8.582;2023-02-01T04:59:13;6.60;;;2.65;;
24557;SDS011;12726;49.148;8.582;2023-02-01T05:01:58;3.17;;;2.25;;
24557;SDS011;12726;49.148;8.582;2023-02-01T05:04:45;4.28;;;2.85;;
24557;SDS011;12726;49.148;8.582;2023-02-01T05:07:30;4.13;;;3.40;;
24557;SDS011;12726;49.148;8.582;2023-02-01T05:10:16;6.13;;;3.28;;
24557;SDS011;12726;49.148;8.582;2023-02-01T05:13:01;5.25;;;3.45;;
24557;SDS011;12726;49.148;8.582;2023-02-01T05:16:07;5.18;;;3.17;;
24557;SDS011;12726;49.148;8.582;2023-02-01T05:18:52;4.63;;;2.92;;
24557;SDS011;12726;49.148;8.582;2023-02-01T05:21:40;4.68;;;3.40;;
24557;SDS011;12726;49.148;8.582;2023-02-01T05:24:25;4.28;;;2.65;;
24557;SDS011;12726;49.148;8.582;2023-02-01T05:27:11;7.93;;;3.05;;
24557;SDS011;12726;49.148;8.582;2023-02-01T05:29:56;4.85;;;2.72;;
24557;SDS011;12726;49.148;8.582;2023-02-01T05:32:42;3.92;;;2.80;;
24557;SDS011;12726;49.148;8.582;2023-02-01T05:35:27;4.30;;;2.65;;
24557;SDS011;12726;49.148;8.582;2023-02-01T05:38:14;4.80;;;2.88;;
24557;SDS011;12726;49.148;8.582;2023-02-01T05:41:00;3.15;;;2.53;;
24557;SDS011;12726;49.148;8.582;2023-02-01T05:43:45;4.40;;;3.00;;
24557;SDS011;12726;49.148;8.582;2023-02-01T05:46:30;4.30;;;2.50;;
24557;SDS011;12726;49.148;8.582;2023-02-01T05:49:16;4.07;;;2.60;;
24557;SDS011;12726;49.148;8.582;2023-02-01T05:52:01;7.82;;;2.83;;
24557;SDS011;12726;49.148;8.582;2023-02-01T05:54:51;5.30;;;3.65;;
24557;SDS011;12726;49.148;8.582;2023-02-01T05:57:36;4.68;;;3.22;;
24557;SDS011;12726;49.148;8.582;2023-02-01T06:00:22;6.65;;;3.17;;
24557;SDS011;12726;49.148;8.582;2023-02-01T06:03:08;5.03;;;3.15;;
24557;SDS011;12726;49.148;8.582;2023-02-01T06:05:53;6.93;;;3.28;;
24557;SDS011;12726;49.148;8.582;2023-02-01T06:08:38;7.22;;;3.97;;
24557;SDS011;12726;49.148;8.582;2023-02-01T06:11:25;6.68;;;3.33;;
24557;SDS011;12726;49.148;8.582;2023-02-01T06:14:11;6.30;;;3.70;;
24557;SDS011;12726;49.148;8.582;2023-02-01T06:16:56;7.03;;;3.55;;
24557;SDS011;12726;49.148;8.582;2023-02-01T06:19:42;8.90;;;4.10;;
24557;SDS011;12726;49.148;8.582;2023-02-01T06:22:28;5.22;;;3.75;;
24557;SDS011;12726;49.148;8.582;2023-02-01T06:25:13;7.13;;;4.18;;
24557;SDS011;12726;49.148;8.582;2023-02-01T06:28:01;6.40;;;3.47;;
24557;SDS011;12726;49.148;8.582;2023-02-01T06:30:49;8.20;;;3.38;;
24557;SDS011;12726;49.148;8.582;2023-02-01T06:33:35;7.65;;;3.85;;
24557;SDS011;12726;49.148;8.582;2023-02-01T06:36:21;5.60;;;3.63;;
24557;SDS011;12726;49.148;8.582;2023-02-01T06:39:06;5.78;;;3.72;;
24557;SDS011;12726;49.148;8.582;2023-02-01T06:41:51;5.45;;;3.53;;
24557;SDS011;12726;49.148;8.582;2023-02-01T06:44:38;6.75;;;3.65;;
24557;SDS011;12726;49.148;8.582;2023-02-01T06:47:23;9.65;;;3.70;;
24557;SDS011;12726;49.148;8.582;2023-02-01T06:50:09;6.78;;;4.28;;
24557;SDS011;12726;49.148;8.582;2023-02-01T06:52:55;8.95;;;3.72;;
24557;SDS011;12726;49.148;8.582;2023-02-01T06:55:40;6.05;;;4.20;;
24557;SDS011;12726;49.148;8.582;2023-02-01T06:58:27;10.75;;;3.83;;
24557;SDS011;12726;49.148;8.582;2023-02-01T07:01:15;11.10;;;4.38;;
24557;SDS011;12726;49.148;8.582;2023-02-01T07:04:00;7.55;;;4.50;;
24557;SDS011;12726;49.148;8.582;2023-02-01T07:06:49;5.88;;;4.25;;
24557;SDS011;12726;49.148;8.582;2023-02-01T07:09:34;7.45;;;4.55;;
24557;SDS011;12726;49.148;8.582;2023-02-01T07:12:20;8.65;;;4.32;;
24557;SDS011;12726;49.148;8.582;2023-02-01T07:15:05;11.25;;;4.97;;
24557;SDS011;12726;49.148;8.582;2023-02-01T07:17:55;9.13;;;4.85;;
24557;SDS011;12726;49.148;8.582;2023-02-01T07:20:40;11.90;;;4.90;;
24557;SDS011;12726;49.148;8.582;2023-02-01T07:23:26;10.52;;;4.70;;
24557;SDS011;12726;49.148;8.582;2023-02-01T07:26:13;8.57;;;4.90;;
24557;SDS011;12726;49.148;8.582;2023-02-01T07:29:00;13.45;;;4.93;;
24557;SDS011;12726;49.148;8.582;2023-02-01T07:31:45;7.78;;;4.28;;
24557;SDS011;12726;49.148;8.582;2023-02-01T07:34:32;9.38;;;4.60;;
24557;SDS011;12726;49.148;8.582;2023-02-01T07:37:18;12.00;;;4.97;;
24557;SDS011;12726;49.148;8.582;2023-02-01T07:40:04;7.50;;;4.22;;
24557;SDS011;12726;49.148;8.582;2023-02-01T07:42:50;9.93;;;4.55;;
24557;SDS011;12726;49.148;8.582;2023-02-01T07:45:35;6.30;;;3.90;;
24557;SDS011;12726;49.148;8.582;2023-02-01T07:48:21;6.97;;;4.18;;
24557;SDS011;12726;49.148;8.582;2023-02-01T07:51:09;8.70;;;4.57;;
24557;SDS011;12726;49.148;8.582;2023-02-01T07:53:56;10.57;;;4.80;;
24557;SDS011;12726;49.148;8.582;2023-02-01T07:56:45;8.65;;;4.32;;
24557;SDS011;12726;49.148;8.582;2023-02-01T07:59:30;10.50;;;5.43;;
24557;SDS011;12726;49.148;8.582;2023-02-01T08:02:16;7.70;;;3.92;;
24557;SDS011;12726;49.148;8.582;2023-02-01T08:05:01;8.10;;;3.80;;
24557;SDS011;12726;49.148;8.582;2023-02-01T08:07:50;10.02;;;4.85;;
24557;SDS011;12726;49.148;8.582;2023-02-01T08:10:36;12.40;;;4.20;;
24557;SDS011;12726;49.148;8.582;2023-02-01T08:13:22;8.68;;;4.57;;
24557;SDS011;12726;49.148;8.582;2023-02-01T08:16:08;12.82;;;4.90;;
24557;SDS011;12726;49.148;8.582;2023-02-01T08:18:55;10.57;;;4.28;;
24557;SDS011;12726;49.148;8.582;2023-02-01T08:21:40;11.80;;;3.80;;
24557;SDS011;12726;49.148;8.582;2023-02-01T08:24:27;6.72;;;4.00;;
24557;SDS011;12726;49.148;8.582;2023-02-01T08:27:12;9.85;;;3.67;;
24557;SDS011;12726;49.148;8.582;2023-02-01T08:29:58;11.48;;;4.43;;
24557;SDS011;12726;49.148;8.582;2023-02-01T08:32:43;13.32;;;4.57;;
24557;SDS011;12726;49.148;8.582;2023-02-01T08:35:28;8.98;;;3.78;;
24557;SDS011;12726;49.148;8.582;2023-02-01T08:38:14;7.72;;;3.35;;
24557;SDS011;12726;49.148;8.582;2023-02-01T08:41:05;6.07;;;3.22;;
24557;SDS011;12726;49.148;8.582;2023-02-01T08:43:51;10.52;;;3.65;;
24557;SDS011;12726;49.148;8.582;2023-02-01T08:46:37;4.85;;;3.33;;
24557;SDS011;12726;49.148;8.582;2023-02-01T08:49:23;10.82;;;4.00;;
24557;SDS011;12726;49.148;8.582;2023-02-01T08:52:08;7.13;;;3.20;;
24557;SDS011;12726;49.148;8.582;2023-02-01T08:54:54;7.43;;;4.10;;
24557;SDS011;12726;49.148;8.582;2023-02-01T08:57:44;9.93;;;3.83;;
24557;SDS011;12726;49.148;8.582;2023-02-01T09:00:30;8.77;;;4.45;;
24557;SDS011;12726;49.148;8.582;2023-02-01T09:03:15;8.38;;;3.97;;
24557;SDS011;12726;49.148;8.582;2023-02-01T09:06:01;10.60;;;3.67;;
24557;SDS011;12726;49.148;8.582;2023-02-01T09:08:47;10.00;;;3.70;;
24557;SDS011;12726;49.148;8.582;2023-02-01T09:11:32;8.48;;;3.60;;
24557;SDS011;12726;49.148;8.582;2023-02-01T09:14:19;7.97;;;3.10;;
24557;SDS011;12726;49.148;8.582;2023-02-01T09:17:04;9.07;;;3.35;;
24557;SDS011;12726;49.148;8.582;2023-02-01T09:19:50;7.55;;;3.40;;
24557;SDS011;12726;49.148;8.582;2023-02-01T09:22:35;9.32;;;3.83;;
24557;SDS011;12726;49.148;8.582;2023-02-01T09:25:20;6.45;;;3.30;;
24557;SDS011;12726;49.148;8.582;2023-02-01T09:28:06;8.07;;;3.15;;
24557;SDS011;12726;49.148;8.582;2023-02-01T09:30:59;6.20;;;3.30;;
24557;SDS011;12726;49.148;8.582;2023-02-01T09:33:46;12.00;;;3.17;;
24557;SDS011;12726;49.148;8.582;2023-02-01T09:36:31;10.75;;;3.25;;
24557;SDS011;12726;49.148;8.582;2023-02-01T09:39:17;7.53;;;2.90;;
24557;SDS011;12726;49.148;8.582;2023-02-01T09:42:06;9.70;;;3.40;;
24557;SDS011;12726;49.148;8.582;2023-02-01T09:45:17;8.48;;;2.88;;
24557;SDS011;12726;49.148;8.582;2023-02-01T09:48:11;8.77;;;3.17;;
24557;SDS011;12726;49.148;8.582;2023-02-01T09:51:00;13.55;;;3.80;;
24557;SDS011;12726;49.148;8.582;2023-02-01T09:53:53;9.90;;;2.30;;
24557;SDS011;12726;49.148;8.582;2023-02-01T09:56:46;12.85;;;3.50;;
24557;SDS011;12726;49.148;8.582;2023-02-01T09:59:34;10.73;;;3.17;;
24557;SDS011;12726;49.148;8.582;2023-02-01T10:02:26;11.63;;;2.97;;
24557;SDS011;12726;49.148;8.582;2023-02-01T10:05:16;10.43;;;3.25;;
24557;SDS011;12726;49.148;8.582;2023-02-01T10:08:09;13.65;;;3.08;;
24557;SDS011;12726;49.148;8.582;2023-02-01T10:11:06;9.13;;;2.75;;
24557;SDS011;12726;49.148;8.582;2023-02-01T10:14:06;8.05;;;2.78;;
24557;SDS011;12726;49.148;8.582;2023-02-01T10:17:03;15.40;;;3.53;;
24557;SDS011;12726;49.148;8.582;2023-02-01T10:20:00;11.02;;;2.58;;
24557;SDS011;12726;49.148;8.582;2023-02-01T10:22:54;7.60;;;2.50;;
24557;SDS011;12726;49.148;8.582;2023-02-01T10:25:50;7.30;;;2.30;;
24557;SDS011;12726;49.148;8.582;2023-02-01T10:28:39;11.60;;;2.88;;
24557;SDS011;12726;49.148;8.582;2023-02-01T10:31:28;9.85;;;3.00;;
24557;SDS011;12726;49.148;8.582;2023-02-01T10:34:18;13.25;;;3.17;;
24557;SDS011;12726;49.148;8.582;2023-02-01T10:37:10;10.43;;;3.15;;
24557;SDS011;12726;49.148;8.582;2023-02-01T10:40:09;10.68;;;2.78;;
24557;SDS011;12726;49.148;8.582;2023-02-01T10:43:01;10.80;;;2.95;;
24557;SDS011;12726;49.148;8.582;2023-02-01T10:45:47;12.63;;;3.60;;
24557;SDS011;12726;49.148;8.582;2023-02-01T10:48:33;14.52;;;2.42;;
24557;SDS011;12726;49.148;8.582;2023-02-01T10:51:19;15.95;;;3.58;;
24557;SDS011;12726;49.148;8.582;2023-02-01T10:54:10;10.27;;;2.83;;
24557;SDS011;12726;49.148;8.582;2023-02-01T10:57:01;14.07;;;3.13;;
24557;SDS011;12726;49.148;8.582;2023-02-01T10:59:47;7.72;;;2.60;;
24557;SDS011;12726;49.148;8.582;2023-02-01T11:02:33;18.42;;;3.08;;
24557;SDS011;12726;49.148;8.582;2023-02-01T11:05:20;14.23;;;3.00;;
24557;SDS011;12726;49.148;8.582;2023-02-01T11:08:12;7.57;;;2.65;;
24557;SDS011;12726;49.148;8.582;2023-02-01T11:10:59;7.65;;;2.45;;
24557;SDS011;12726;49.148;8.582;2023-02-01T11:13:52;9.63;;;2.78;;
24557;SDS011;12726;49.148;8.582;2023-02-01T11:16:39;12.63;;;2.92;;
24557;SDS011;12726;49.148;8.582;2023-02-01T11:19:25;8.48;;;2.83;;
24557;SDS011;12726;49.148;8.582;2023-02-01T11:22:12;10.45;;;2.97;;
24557;SDS011;12726;49.148;8.582;2023-02-01T11:24:58;17.95;;;2.88;;
24557;SDS011;12726;49.148;8.582;2023-02-01T11:27:46;11.55;;;3.15;;
24557;SDS011;12726;49.148;8.582;2023-02-01T11:30:34;7.38;;;2.17;;
24557;SDS011;12726;49.148;8.582;2023-02-01T11:33:23;14.05;;;3.63;;
24557;SDS011;12726;49.148;8.582;2023-02-01T11:36:14;17.92;;;3.30;;
24557;SDS011;12726;49.148;8.582;2023-02-01T11:39:08;13.68;;;2.83;;
24557;SDS011;12726;49.148;8.582;2023-02-01T11:42:03;12.98;;;3.38;;
24557;SDS011;12726;49.148;8.582;2023-02-01T11:44:51;15.05;;;3.15;;
24557;SDS011;12726;49.148;8.582;2023-02-01T11:47:53;13.77;;;3.00;;
24557;SDS011;12726;49.148;8.582;2023-02-01T11:50:43;14.65;;;2.53;;
24557;SDS011;12726;49.148;8.582;2023-02-01T11:53:38;11.63;;;2.55;;
24557;SDS011;12726;49.148;8.582;2023-02-01T11:56:40;8.40;;;2.85;;
24557;SDS011;12726;49.148;8.582;2023-02-01T11:59:39;12.80;;;2.58;;
24557;SDS011;12726;49.148;8.582;2023-02-01T12:02:48;17.25;;;2.47;;
24557;SDS011;12726;49.148;8.582;2023-02-01T12:05:50;12.80;;;3.50;;
24557;SDS011;12726;49.148;8.582;2023-02-01T12:08:53;9.25;;;2.67;;
24557;SDS011;12726;49.148;8.582;2023-02-01T12:11:58;14.48;;;2.85;;
24557;SDS011;12726;49.148;8.582;2023-02-01T12:14:56;9.68;;;2.63;;
24557;SDS011;12726;49.148;8.582;2023-02-01T12:17:59;12.45;;;2.58;;
24557;SDS011;12726;49.148;8.582;2023-02-01T12:21:03;9.07;;;2.30;;
24557;SDS011;12726;49.148;8.582;2023-02-01T12:23:58;10.43;;;2.58;;
24557;SDS011;12726;49.148;8.582;2023-02-01T12:26:57;9.75;;;2.75;;
24557;SDS011;12726;49.148;8.582;2023-02-01T12:33:05;7.28;;;2.53;;
24557;SDS011;12726;49.148;8.582;2023-02-01T12:36:00;12.82;;;2.80;;
24557;SDS011;12726;49.148;8.582;2023-02-01T12:38:55;11.75;;;2.00;;
24557;SDS011;12726;49.148;8.582;2023-02-01T12:41:50;10.77;;;3.33;;
24557;SDS011;12726;49.148;8.582;2023-02-01T12:44:43;12.38;;;2.80;;
24557;SDS011;12726;49.148;8.582;2023-02-01T12:47:35;11.60;;;2.60;;
24557;SDS011;12726;49.148;8.582;2023-02-01T12:50:27;12.10;;;2.97;;
24557;SDS011;12726;49.148;8.582;2023-02-01T12:53:17;9.98;;;2.28;;
24557;SDS011;12726;49.148;8.582;2023-02-01T12:56:09;12.07;;;3.83;;
24557;SDS011;12726;49.148;8.582;2023-02-01T12:58:59;14.60;;;2.90;;
24557;SDS011;12726;49.148;8.582;2023-02-01T13:01:50;11.02;;;2.38;;
24557;SDS011;12726;49.148;8.582;2023-02-01T13:04:42;10.30;;;2.42;;
24557;SDS011;12726;49.148;8.582;2023-02-01T13:07:39;16.00;;;3.33;;
24557;SDS011;12726;49.148;8.582;2023-02-01T13:10:31;10.40;;;2.85;;
24557;SDS011;12726;49.148;8.582;2023-02-01T13:13:21;15.98;;;2.70;;
24557;SDS011;12726;49.148;8.582;2023-02-01T13:16:14;11.10;;;2.88;;
24557;SDS011;12726;49.148;8.582;2023-02-01T13:19:04;12.02;;;2.72;;
24557;SDS011;12726;49.148;8.582;2023-02-01T13:21:55;10.10;;;2.80;;
24557;SDS011;12726;49.148;8.582;2023-02-01T13:24:47;18.00;;;4.32;;
24557;SDS011;12726;49.148;8.582;2023-02-01T13:27:35;15.07;;;2.75;;
24557;SDS011;12726;49.148;8.582;2023-02-01T13:30:21;16.17;;;3.20;;
24557;SDS011;12726;49.148;8.582;2023-02-01T13:33:17;12.32;;;2.92;;
24557;SDS011;12726;49.148;8.582;2023-02-01T13:36:35;12.18;;;2.90;;
24557;SDS011;12726;49.148;8.582;2023-02-01T13:39:40;17.35;;;3.25;;
24557;SDS011;12726;49.148;8.582;2023-02-01T13:42:35;16.05;;;3.30;;
24557;SDS011;12726;49.148;8.582;2023-02-01T13:45:30;10.27;;;2.53;;
24557;SDS011;12726;49.148;8.582;2023-02-01T13:48:20;10.63;;;2.47;;
24557;SDS011;12726;49.148;8.582;2023-02-01T13:51:09;7.10;;;2.10;;
24557;SDS011;12726;49.148;8.582;2023-02-01T13:53:55;14.60;;;2.20;;
24557;SDS011;12726;49.148;8.582;2023-02-01T13:56:41;12.43;;;2.72;;
24557;SDS011;12726;49.148;8.582;2023-02-01T14:03:08;10.48;;;2.30;;
24557;SDS011;12726;49.148;8.582;2023-02-01T14:06:00;13.15;;;2.08;;
24557;SDS011;12726;49.148;8.582;2023-02-01T14:09:11;10.13;;;2.42;;
24557;SDS011;12726;49.148;8.582;2023-02-01T14:15:33;13.30;;;3.00;;
24557;SDS011;12726;49.148;8.582;2023-02-01T14:21:35;7.95;;;2.35;;
24557;SDS011;12726;49.148;8.582;2023-02-01T14:24:32;12.95;;;2.65;;
24557;SDS011;12726;49.148;8.582;2023-02-01T14:27:19;9.18;;;2.60;;
24557;SDS011;12726;49.148;8.582;2023-02-01T14:30:13;13.10;;;2.70;;
24557;SDS011;12726;49.148;8.582;2023-02-01T14:33:02;9.68;;;2.67;;
24557;SDS011;12726;49.148;8.582;2023-02-01T14:35:58;9.45;;;2.35;;
24557;SDS011;12726;49.148;8.582;2023-02-01T14:38:48;11.52;;;2.45;;
24557;SDS011;12726;49.148;8.582;2023-02-01T14:41:35;11.60;;;2.50;;
24557;SDS011;12726;49.148;8.582;2023-02-01T14:44:25;7.93;;;2.28;;
24557;SDS011;12726;49.148;8.582;2023-02-01T14:50:20;20.85;;;2.80;;
24557;SDS011;12726;49.148;8.582;2023-02-01T14:53:14;13.93;;;2.65;;
24557;SDS011;12726;49.148;8.582;2023-02-01T14:56:06;8.02;;;2.20;;
24557;SDS011;12726;49.148;8.582;2023-02-01T14:58:56;12.20;;;2.58;;
24557;SDS011;12726;49.148;8.582;2023-02-01T15:01:48;9.07;;;2.00;;
24557;SDS011;12726;49.148;8.582;2023-02-01T15:04:40;13.70;;;2.55;;
24557;SDS011;12726;49.148;8.582;2023-02-01T15:07:28;6.63;;;1.80;;
24557;SDS011;12726;49.148;8.582;2023-02-01T15:10:13;11.25;;;2.70;;
24557;SDS011;12726;49.148;8.582;2023-02-01T15:12:59;8.70;;;1.83;;
24557;SDS011;12726;49.148;8.582;2023-02-01T15:15:44;16.23;;;2.17;;
24557;SDS011;12726;49.148;8.582;2023-02-01T15:18:30;14.35;;;2.30;;
24557;SDS011;12726;49.148;8.582;2023-02-01T15:21:16;11.25;;;2.60;;
24557;SDS011;12726;49.148;8.582;2023-02-01T15:24:14;11.77;;;2.47;;
24557;SDS011;12726;49.148;8.582;2023-02-01T15:27:05;12.15;;;2.75;;
24557;SDS011;12726;49.148;8.582;2023-02-01T15:29:50;10.80;;;2.22;;
24557;SDS011;12726;49.148;8.582;2023-02-01T15:32:37;8.82;;;1.90;;
24557;SDS011;12726;49.148;8.582;2023-02-01T15:35:37;13.35;;;3.03;;
24557;SDS011;12726;49.148;8.582;2023-02-01T15:41:17;10.18;;;2.47;;
24557;SDS011;12726;49.148;8.582;2023-02-01T15:44:05;14.57;;;3.25;;
24557;SDS011;12726;49.148;8.582;2023-02-01T15:46:56;12.30;;;2.55;;
24557;SDS011;12726;49.148;8.582;2023-02-01T15:49:44;10.95;;;2.63;;
24557;SDS011;12726;49.148;8.582;2023-02-01T15:52:36;7.72;;;2.13;;
24557;SDS011;12726;49.148;8.582;2023-02-01T15:55:29;13.43;;;2.22;;
24557;SDS011;12726;49.148;8.582;2023-02-01T15:58:22;17.13;;;3.63;;
24557;SDS011;12726;49.148;8.582;2023-02-01T16:01:10;9.45;;;2.20;;
24557;SDS011;12726;49.148;8.582;2023-02-01T16:04:04;13.02;;;2.80;;
24557;SDS011;12726;49.148;8.582;2023-02-01T16:09:49;15.32;;;2.50;;
24557;SDS011;12726;49.148;8.582;2023-02-01T16:12:45;9.00;;;2.10;;
24557;SDS011;12726;49.148;8.582;2023-02-01T16:15:33;8.60;;;3.08;;
24557;SDS011;12726;49.148;8.582;2023-02-01T16:18:19;11.88;;;2.72;;
24557;SDS011;12726;49.148;8.582;2023-02-01T16:21:04;18.23;;;3.40;;
24557;SDS011;12726;49.148;8.582;2023-02-01T16:23:52;12.85;;;2.03;;
24557;SDS011;12726;49.148;8.582;2023-02-01T16:26:37;12.73;;;2.58;;
24557;SDS011;12726;49.148;8.582;2023-02-01T16:29:23;10.85;;;2.10;;
24557;SDS011;12726;49.148;8.582;2023-02-01T16:32:12;13.68;;;2.53;;
24557;SDS011;12726;49.148;8.582;2023-02-01T16:35:01;16.08;;;2.78;;
24557;SDS011;12726;49.148;8.582;2023-02-01T16:37:46;10.32;;;2.10;;
24557;SDS011;12726;49.148;8.582;2023-02-01T16:40:32;11.90;;;2.42;;
24557;SDS011;12726;49.148;8.582;2023-02-01T16:43:18;6.00;;;1.55;;
24557;SDS011;12726;49.148;8.582;2023-02-01T16:46:04;12.43;;;2.67;;
24557;SDS011;12726;49.148;8.582;2023-02-01T16:48:53;9.10;;;1.95;;
24557;SDS011;12726;49.148;8.582;2023-02-01T16:51:42;16.73;;;2.97;;
24557;SDS011;12726;49.148;8.582;2023-02-01T16:54:28;8.48;;;1.98;;
24557;SDS011;12726;49.148;8.582;2023-02-01T16:57:14;11.60;;;2.90;;
24557;SDS011;12726;49.148;8.582;2023-02-01T17:00:01;11.05;;;2.70;;
24557;SDS011;12726;49.148;8.582;2023-02-01T17:02:48;6.40;;;2.30;;
24557;SDS011;12726;49.148;8.582;2023-02-01T17:05:34;10.90;;;2.67;;
24557;SDS011;12726;49.148;8.582;2023-02-01T17:08:22;13.00;;;2.15;;
24557;SDS011;12726;49.148;8.582;2023-02-01T17:11:12;11.43;;;2.67;;
24557;SDS011;12726;49.148;8.582;2023-02-01T17:16:46;11.43;;;2.38;;
24557;SDS011;12726;49.148;8.582;2023-02-01T17:19:33;13.18;;;2.88;;
24557;SDS011;12726;49.148;8.582;2023-02-01T17:22:20;15.40;;;2.45;;
24557;SDS011;12726;49.148;8.582;2023-02-01T17:25:06;12.35;;;2.90;;
24557;SDS011;12726;49.148;8.582;2023-02-01T17:27:58;13.90;;;2.47;;
24557;SDS011;12726;49.148;8.582;2023-02-01T17:30:43;12.40;;;3.03;;